Time;durP1;ratioP1;P1;durP2;ratioP2;P2;SDS_P1;SDS_P2;PMS_P1;PMS_P2;Temp;Humidity;BMP_temperature;BMP_pressure;BME280_temperature;BME280_humidity;BME280_pressure;Samples;Min_cycle;Max_cycle;Signal;HPM_P1;HPM_P2
2020/12/03 00:01:19;;;;;;;16.93;13.03;;;8.00;96.40;;;;;;5092030;28;20384;-74
2020/12/03 00:03:55;;;;;;;11.77;10.50;;;8.10;96.50;;;;;;5092040;28;20731;-74
2020/12/03 00:06:28;;;;;;;13.87;11.83;;;8.10;96.30;;;;;;5092358;28;20454;-73
2020/12/03 00:09:00;;;;;;;12.03;10.83;;;8.10;96.10;;;;;;5091891;28;20416;-74
2020/12/03 00:11:29;;;;;;;15.67;12.50;;;8.00;95.90;;;;;;5092643;28;20394;-73
2020/12/03 00:13:56;;;;;;;15.10;11.70;;;7.80;96.10;;;;;;5091882;28;20406;-74
2020/12/03 00:16:26;;;;;;;12.70;11.17;;;7.70;96.20;;;;;;5092500;28;20431;-73
2020/12/03 00:18:52;;;;;;;11.73;10.53;;;7.70;96.40;;;;;;5091821;28;20526;-74
2020/12/03 00:21:30;;;;;;;13.00;10.07;;;7.70;96.40;;;;;;5092411;28;20810;-73
2020/12/03 00:23:56;;;;;;;13.00;11.00;;;7.70;96.60;;;;;;5091598;28;20232;-73
2020/12/03 00:26:26;;;;;;;13.07;11.73;;;7.80;96.60;;;;;;5092120;28;20926;-73
2020/12/03 00:28:52;;;;;;;13.40;11.00;;;7.80;96.30;;;;;;5090956;28;20191;-73
2020/12/03 00:31:17;;;;;;;12.37;10.10;;;7.70;96.10;;;;;;5092320;28;20441;-73
2020/12/03 00:33:43;;;;;;;13.37;11.13;;;7.70;96.40;;;;;;5091547;28;20177;-74
2020/12/03 00:36:09;;;;;;;12.70;10.90;;;7.40;96.50;;;;;;5092243;28;20189;-73
2020/12/03 00:38:35;;;;;;;13.40;10.53;;;7.50;96.80;;;;;;5092001;28;20185;-74
2020/12/03 00:41:00;;;;;;;13.37;11.20;;;7.30;96.50;;;;;;5091219;28;20216;-73
2020/12/03 00:43:26;;;;;;;13.50;11.50;;;7.10;97.00;;;;;;5091912;28;20625;-73
2020/12/03 00:45:52;;;;;;;12.37;11.07;;;6.60;98.20;;;;;;5084567;28;20608;-73
2020/12/03 00:48:19;;;;;;;13.83;11.70;;;6.30;98.90;;;;;;5053459;28;20294;-73
2020/12/03 00:50:46;;;;;;;11.55;10.32;;;6.20;99.40;;;;;;5071628;28;20214;-74
2020/12/03 00:53:11;;;;;;;13.50;10.83;;;6.00;99.70;;;;;;5071808;28;20184;-73
2020/12/03 00:55:37;;;;;;;13.93;11.13;;;6.00;99.90;;;;;;5071790;28;20412;-73
2020/12/03 00:58:05;;;;;;;13.17;10.17;;;5.90;99.90;;;;;;5079821;28;20212;-73
2020/12/03 01:00:30;;;;;;;11.88;10.27;;;6.00;99.90;;;;;;5092098;28;20180;-73
2020/12/03 01:02:56;;;;;;;12.67;10.50;;;6.10;99.90;;;;;;5073021;28;20168;-74
2020/12/03 01:05:22;;;;;;;13.90;10.70;;;6.30;99.90;;;;;;5087297;28;20517;-74
2020/12/03 01:07:48;;;;;;;13.30;10.57;;;6.30;99.90;;;;;;5071631;28;20184;-72
2020/12/03 01:10:20;;;;;;;13.30;10.33;;;6.30;99.90;;;;;;5067046;28;20203;-73
2020/12/03 01:12:47;;;;;;;14.52;11.25;;;6.20;99.90;;;;;;5091370;28;20162;-74
2020/12/03 01:15:13;;;;;;;12.90;11.15;;;6.30;99.90;;;;;;5091962;28;20169;-73
2020/12/03 01:17:41;;;;;;;14.47;12.30;;;6.40;99.90;;;;;;5091989;28;20191;-73
2020/12/03 01:20:08;;;;;;;14.47;10.67;;;6.60;99.90;;;;;;5079376;28;21087;-75
2020/12/03 01:22:34;;;;;;;15.10;10.97;;;6.70;99.80;;;;;;5071441;28;20420;-73
2020/12/03 01:25:00;;;;;;;13.80;11.10;;;6.80;99.30;;;;;;5071113;28;20874;-73
2020/12/03 01:27:26;;;;;;;20.43;12.90;;;6.90;99.10;;;;;;5071332;28;20230;-73
2020/12/03 01:29:52;;;;;;;15.13;12.10;;;7.00;99.10;;;;;;5052695;28;20179;-74
2020/12/03 01:32:17;;;;;;;12.63;11.10;;;7.10;99.00;;;;;;5053743;28;20413;-73
2020/12/03 01:34:43;;;;;;;14.93;11.60;;;7.30;99.20;;;;;;5055826;28;20590;-73
2020/12/03 01:37:09;;;;;;;13.47;10.77;;;7.30;98.60;;;;;;5089877;28;20539;-73
2020/12/03 01:39:35;;;;;;;12.30;10.17;;;7.40;98.70;;;;;;5092687;28;20219;-74
2020/12/03 01:42:00;;;;;;;13.17;11.00;;;7.50;98.50;;;;;;5094737;28;20394;-74
2020/12/03 01:44:48;;;;;;;13.27;11.30;;;7.50;97.90;;;;;;5077940;28;20170;-73
2020/12/03 01:47:30;;;;;;;12.70;11.27;;;7.30;97.90;;;;;;5095569;28;20198;-74
2020/12/03 01:49:56;;;;;;;13.17;11.27;;;7.50;98.30;;;;;;5068817;28;20388;-74
2020/12/03 01:52:22;;;;;;;14.90;12.00;;;7.50;98.10;;;;;;5094754;28;20916;-74
2020/12/03 01:54:48;;;;;;;12.23;10.93;;;7.70;98.00;;;;;;5094999;28;20449;-75
2020/12/03 01:57:25;;;;;;;16.27;12.80;;;7.80;97.70;;;;;;5095431;28;20434;-73
2020/12/03 02:00:09;;;;;;;13.67;12.20;;;7.70;97.30;;;;;;5094453;28;20369;-74
2020/12/03 02:02:34;;;;;;;13.70;11.57;;;7.40;97.50;;;;;;5095325;28;20455;-73
2020/12/03 02:05:09;;;;;;;15.20;12.00;;;7.30;98.00;;;;;;5090054;28;20974;-74
2020/12/03 02:07:35;;;;;;;14.37;12.57;;;7.20;98.00;;;;;;5074789;28;20456;-73
2020/12/03 02:10:01;;;;;;;14.00;11.40;;;7.20;98.60;;;;;;5074861;28;20504;-73
2020/12/03 02:12:26;;;;;;;14.60;11.43;;;7.30;98.20;;;;;;5074174;28;20233;-73
2020/12/03 02:14:52;;;;;;;16.20;13.00;;;7.30;98.10;;;;;;5073864;28;20775;-74
2020/12/03 02:17:18;;;;;;;13.40;10.93;;;7.30;98.00;;;;;;5074662;28;20676;-74
2020/12/03 02:19:44;;;;;;;15.20;11.70;;;7.30;98.10;;;;;;5075309;28;20606;-74
2020/12/03 02:22:11;;;;;;;15.33;11.90;;;7.40;98.20;;;;;;5094139;28;20276;-73
2020/12/03 02:24:39;;;;;;;13.37;11.70;;;7.50;98.30;;;;;;5094464;28;20178;-74
2020/12/03 02:27:07;;;;;;;13.20;11.80;;;7.60;98.10;;;;;;5093813;28;20457;-74
2020/12/03 02:29:32;;;;;;;13.00;11.03;;;7.60;98.00;;;;;;5076823;28;20760;-73
2020/12/03 02:31:58;;;;;;;14.93;10.90;;;7.50;97.80;;;;;;5093476;28;20404;-74
2020/12/03 02:34:24;;;;;;;15.20;11.27;;;7.60;97.80;;;;;;5094626;28;20181;-73
2020/12/03 02:37:01;;;;;;;14.20;10.40;;;7.60;97.70;;;;;;5093872;28;20433;-74
2020/12/03 02:39:28;;;;;;;12.37;9.60;;;7.30;97.30;;;;;;5094255;28;20177;-73
2020/12/03 02:41:55;;;;;;;14.10;10.70;;;7.20;98.40;;;;;;5093152;28;20922;-74
2020/12/03 02:44:21;;;;;;;12.13;10.60;;;7.20;98.30;;;;;;5094150;28;20716;-73
2020/12/03 02:46:48;;;;;;;11.40;10.07;;;7.20;98.60;;;;;;5094076;28;20516;-73
2020/12/03 02:49:14;;;;;;;13.20;10.57;;;7.10;99.10;;;;;;5093792;28;20379;-73
2020/12/03 02:51:41;;;;;;;14.60;10.30;;;7.30;99.10;;;;;;5092775;28;20752;-73
2020/12/03 02:54:09;;;;;;;12.40;9.77;;;7.20;98.20;;;;;;5093595;28;20546;-73
2020/12/03 02:56:35;;;;;;;11.33;10.13;;;7.00;98.40;;;;;;5094198;28;20417;-73
2020/12/03 02:59:01;;;;;;;10.57;9.47;;;7.00;99.00;;;;;;5075337;28;20386;-74
2020/12/03 03:01:27;;;;;;;11.23;9.67;;;7.00;98.90;;;;;;5076012;28;20398;-73
2020/12/03 03:03:53;;;;;;;10.17;8.80;;;7.10;98.90;;;;;;5093204;28;20415;-75
2020/12/03 03:06:18;;;;;;;10.90;9.80;;;7.30;98.90;;;;;;5094120;28;20205;-73
2020/12/03 03:08:44;;;;;;;9.70;8.70;;;7.40;98.50;;;;;;5075856;28;20417;-74
2020/12/03 03:11:10;;;;;;;10.10;9.00;;;7.40;98.00;;;;;;5092756;28;20188;-74
2020/12/03 03:13:36;;;;;;;11.57;9.60;;;7.30;98.60;;;;;;5093806;28;20837;-73
2020/12/03 03:16:02;;;;;;;9.73;8.73;;;6.90;98.70;;;;;;5092982;28;20473;-74
2020/12/03 03:18:28;;;;;;;9.90;8.60;;;7.00;99.30;;;;;;5093716;28;20188;-74
2020/12/03 03:20:54;;;;;;;9.70;8.43;;;7.00;99.00;;;;;;5092123;28;20421;-75
2020/12/03 03:23:19;;;;;;;9.50;8.40;;;7.20;99.20;;;;;;5093504;28;20903;-74
2020/12/03 03:25:45;;;;;;;10.53;9.27;;;7.30;98.90;;;;;;5093165;28;20262;-74
2020/12/03 03:28:11;;;;;;;10.57;8.53;;;7.40;98.70;;;;;;5092807;28;20806;-73
2020/12/03 03:30:37;;;;;;;9.50;8.30;;;7.40;98.30;;;;;;5093521;28;20181;-73
2020/12/03 03:33:04;;;;;;;9.97;8.97;;;7.50;98.30;;;;;;5092861;28;20386;-74
2020/12/03 03:35:30;;;;;;;9.30;8.40;;;7.60;98.20;;;;;;5093448;28;20465;-74
2020/12/03 03:37:56;;;;;;;10.17;9.10;;;7.70;98.30;;;;;;5074627;28;20459;-74
2020/12/03 03:40:21;;;;;;;10.20;9.10;;;7.70;97.90;;;;;;5093260;28;20508;-73
2020/12/03 03:42:47;;;;;;;10.57;8.70;;;7.80;97.60;;;;;;5093579;28;20428;-73
2020/12/03 03:45:13;;;;;;;9.23;8.20;;;7.60;97.40;;;;;;5092429;28;20201;-74
2020/12/03 03:47:40;;;;;;;9.20;8.30;;;7.50;97.80;;;;;;5093068;28;20293;-74
2020/12/03 03:50:08;;;;;;;10.43;9.30;;;7.60;98.00;;;;;;5091741;28;20418;-74
2020/12/03 03:52:34;;;;;;;10.30;9.10;;;7.80;97.70;;;;;;5093010;28;20420;-74
2020/12/03 03:55:00;;;;;;;9.57;8.07;;;7.70;97.60;;;;;;5092536;28;20428;-74
2020/12/03 03:57:27;;;;;;;11.37;10.23;;;7.80;97.90;;;;;;5092959;28;20770;-73
2020/12/03 03:59:52;;;;;;;10.07;8.43;;;7.90;97.70;;;;;;5092861;28;20819;-74
2020/12/03 04:02:20;;;;;;;10.93;9.70;;;8.00;97.40;;;;;;5092502;28;20455;-73
2020/12/03 04:04:46;;;;;;;9.50;8.40;;;8.10;97.30;;;;;;5091990;28;20796;-73
2020/12/03 04:07:13;;;;;;;11.70;9.07;;;7.90;97.20;;;;;;5092030;28;20640;-71
2020/12/03 04:09:39;;;;;;;9.80;8.83;;;7.90;97.50;;;;;;5092804;28;20473;-69
2020/12/03 04:12:05;;;;;;;11.67;9.83;;;8.00;97.40;;;;;;5091899;28;20513;-70
2020/12/03 04:14:31;;;;;;;12.97;10.27;;;8.10;97.30;;;;;;5092742;28;20529;-70
2020/12/03 04:16:56;;;;;;;11.40;9.93;;;8.10;96.90;;;;;;5092058;28;20405;-71
2020/12/03 04:19:22;;;;;;;10.73;9.63;;;8.10;97.20;;;;;;5092951;28;20957;-69
2020/12/03 04:21:48;;;;;;;10.93;9.83;;;8.20;96.90;;;;;;5091867;28;20636;-69
2020/12/03 04:24:14;;;;;;;12.87;10.80;;;8.20;96.80;;;;;;5091674;28;20194;-70
2020/12/03 04:26:39;;;;;;;13.37;10.13;;;8.20;96.90;;;;;;5092438;28;20575;-70
2020/12/03 04:29:05;;;;;;;10.67;9.60;;;8.20;97.00;;;;;;5091697;28;20723;-70
2020/12/03 04:31:31;;;;;;;11.93;9.67;;;8.20;97.10;;;;;;5092068;28;20174;-70
2020/12/03 04:33:58;;;;;;;12.63;9.83;;;8.20;96.80;;;;;;5091943;28;20182;-71
2020/12/03 04:36:24;;;;;;;12.43;10.47;;;8.20;96.70;;;;;;5092464;28;20417;-70
2020/12/03 04:38:49;;;;;;;11.53;9.60;;;8.20;96.80;;;;;;5092415;28;20381;-70
2020/12/03 04:41:16;;;;;;;11.10;9.90;;;8.20;96.70;;;;;;5091416;28;20457;-70
2020/12/03 04:43:50;;;;;;;9.40;8.50;;;8.20;96.80;;;;;;5092176;28;20178;-70
2020/12/03 04:46:40;;;;;;;9.57;8.57;;;8.10;96.70;;;;;;5073873;28;20475;-70
2020/12/03 04:49:28;;;;;;;12.97;11.67;;;8.00;97.30;;;;;;5092201;28;20455;-70
2020/12/03 04:52:24;;;;;;;15.00;10.13;;;8.00;97.40;;;;;;5092170;28;20409;-69
2020/12/03 04:55:08;;;;;;;11.90;10.80;;;8.10;97.30;;;;;;5092323;28;20409;-69
2020/12/03 04:57:48;;;;;;;10.20;9.00;;;8.10;97.30;;;;;;5092703;28;20860;-69
2020/12/03 05:00:40;;;;;;;11.73;9.87;;;8.00;97.50;;;;;;5092432;28;20424;-70
2020/12/03 05:03:34;;;;;;;12.23;10.93;;;8.00;97.50;;;;;;5092088;28;20915;-70
2020/12/03 05:06:48;;;;;;;12.17;10.13;;;7.80;97.50;;;;;;5092318;28;20460;-70
2020/12/03 05:09:40;;;;;;;11.80;10.50;;;7.90;97.90;;;;;;4990091;28;20508;-70
2020/12/03 05:12:18;;;;;;;11.77;10.27;;;7.90;97.80;;;;;;5084781;28;20417;-70
2020/12/03 05:14:56;;;;;;;9.90;8.90;;;7.90;97.80;;;;;;5093699;28;20400;-70
2020/12/03 05:17:47;;;;;;;10.40;8.70;;;8.00;97.80;;;;;;5096604;28;20399;-70
2020/12/03 05:20:40;;;;;;;8.80;7.90;;;7.70;97.60;;;;;;5095886;28;20410;-69
2020/12/03 05:23:15;;;;;;;8.93;8.00;;;7.60;98.00;;;;;;5089536;28;20481;-70
2020/12/03 05:25:41;;;;;;;10.63;8.90;;;7.70;98.00;;;;;;5096330;28;20894;-70
2020/12/03 05:28:21;;;;;;;10.07;8.60;;;7.70;97.70;;;;;;5096086;28;20397;-70
2020/12/03 05:30:53;;;;;;;13.90;10.97;;;7.70;97.70;;;;;;5096072;28;20803;-69
2020/12/03 05:33:19;;;;;;;10.20;8.80;;;7.50;97.80;;;;;;5095580;28;20520;-69
2020/12/03 05:35:46;;;;;;;8.00;7.20;;;7.40;97.90;;;;;;5096224;28;20924;-69
2020/12/03 05:38:24;;;;;;;8.63;7.47;;;7.10;98.40;;;;;;5091878;28;20423;-69
2020/12/03 05:41:05;;;;;;;7.87;7.10;;;7.00;98.70;;;;;;5096189;28;20451;-69
2020/12/03 05:43:32;;;;;;;9.47;8.60;;;6.80;98.60;;;;;;5095939;28;20484;-69
2020/12/03 05:46:00;;;;;;;8.27;7.13;;;6.60;99.30;;;;;;5095940;28;20421;-72
2020/12/03 05:48:26;;;;;;;8.00;7.20;;;6.30;99.80;;;;;;5095925;28;20179;-70
2020/12/03 05:50:54;;;;;;;8.10;7.30;;;6.30;99.90;;;;;;5095916;28;20172;-70
2020/12/03 05:53:29;;;;;;;9.30;8.50;;;6.30;99.90;;;;;;5089741;28;20188;-71
2020/12/03 05:56:12;;;;;;;7.35;6.43;;;6.40;99.90;;;;;;5096298;28;20402;-70
2020/12/03 05:58:38;;;;;;;8.17;6.23;;;6.60;99.90;;;;;;5096007;28;20181;-70
2020/12/03 06:01:18;;;;;;;7.90;6.43;;;6.70;99.90;;;;;;5095031;28;20471;-71
2020/12/03 06:03:59;;;;;;;8.40;7.60;;;6.80;99.40;;;;;;5095563;28;20176;-70
2020/12/03 06:06:36;;;;;;;7.07;6.23;;;6.70;99.40;;;;;;5095539;28;20827;-70
2020/12/03 06:09:20;;;;;;;7.80;7.00;;;6.60;99.80;;;;;;5090606;28;20459;-71
2020/12/03 06:12:10;;;;;;;8.80;7.90;;;6.60;99.90;;;;;;5095491;28;20394;-70
2020/12/03 06:14:55;;;;;;;9.70;7.40;;;6.50;99.90;;;;;;5095437;28;20507;-70
2020/12/03 06:18:07;;;;;;;7.50;6.70;;;6.50;99.90;;;;;;5094505;28;20175;-70
2020/12/03 06:20:58;;;;;;;8.50;7.70;;;6.70;99.90;;;;;;5044713;28;20459;-70
2020/12/03 06:24:02;;;;;;;8.10;7.30;;;6.80;99.70;;;;;;5092548;28;20399;-71
2020/12/03 06:26:36;;;;;;;9.60;8.00;;;6.90;99.60;;;;;;5060320;28;20577;-70
2020/12/03 06:29:07;;;;;;;7.93;7.03;;;6.80;99.30;;;;;;5074546;28;20490;-71
2020/12/03 06:32:04;;;;;;;10.33;9.30;;;6.80;99.40;;;;;;5074893;28;20750;-70
2020/12/03 06:34:41;;;;;;;8.47;7.57;;;6.80;99.50;;;;;;5074882;28;20809;-70
2020/12/03 06:37:30;;;;;;;8.47;7.07;;;6.80;99.50;;;;;;5074135;28;20381;-70
2020/12/03 06:40:06;;;;;;;8.00;7.20;;;6.90;99.30;;;;;;5081048;28;20537;-70
2020/12/03 06:42:56;;;;;;;8.33;7.40;;;7.00;98.90;;;;;;5094919;28;20400;-70
2020/12/03 06:45:38;;;;;;;9.17;7.97;;;7.10;98.70;;;;;;5093291;28;20397;-70
2020/12/03 06:48:30;;;;;;;11.40;9.70;;;7.10;98.40;;;;;;5094208;28;20391;-71
2020/12/03 06:51:22;;;;;;;10.30;8.17;;;7.00;98.50;;;;;;5094551;28;20786;-70
2020/12/03 06:54:25;;;;;;;8.73;7.30;;;6.70;98.70;;;;;;5094683;28;20381;-70
2020/12/03 06:57:28;;;;;;;12.07;10.27;;;6.50;99.50;;;;;;5094493;28;20762;-70
2020/12/03 07:00:30;;;;;;;9.27;8.30;;;6.40;99.40;;;;;;5094706;28;20385;-70
2020/12/03 07:03:45;;;;;;;12.20;10.90;;;6.40;99.90;;;;;;5094840;28;20772;-70
2020/12/03 07:06:36;;;;;;;11.18;8.63;;;6.60;99.90;;;;;;5075781;28;20604;-71
2020/12/03 07:09:29;;;;;;;9.60;8.60;;;6.70;99.70;;;;;;5094516;28;20161;-70
2020/12/03 07:12:04;;;;;;;10.70;8.30;;;6.40;99.90;;;;;;5094384;28;20184;-70
2020/12/03 07:14:57;;;;;;;11.30;8.80;;;6.30;99.80;;;;;;5094307;28;20236;-70
2020/12/03 07:18:00;;;;;;;10.73;8.90;;;6.20;99.90;;;;;;5093558;28;20173;-70
2020/12/03 07:20:48;;;;;;;12.20;9.90;;;6.20;99.90;;;;;;5093297;28;20624;-70
2020/12/03 07:23:58;;;;;;;10.88;9.77;;;6.30;99.90;;;;;;5093444;28;20180;-70
2020/12/03 07:26:44;;;;;;;12.63;9.60;;;6.40;99.90;;;;;;5087736;28;20514;-70
2020/12/03 07:29:35;;;;;;;11.30;9.90;;;6.40;99.90;;;;;;5092971;28;20185;-71
2020/12/03 07:32:03;;;;;;;11.32;10.00;;;6.50;99.90;;;;;;5093988;28;20173;-70
2020/12/03 07:34:31;;;;;;;11.70;9.77;;;6.20;99.90;;;;;;5093790;28;20183;-70
2020/12/03 07:37:21;;;;;;;12.70;11.07;;;6.40;99.90;;;;;;5093717;28;20585;-70
2020/12/03 07:39:50;;;;;;;12.50;10.70;;;6.60;99.90;;;;;;5093810;28;20406;-71
2020/12/03 07:42:22;;;;;;;10.23;9.13;;;6.60;99.60;;;;;;5093096;28;20490;-71
2020/12/03 07:44:53;;;;;;;9.93;8.90;;;6.50;99.70;;;;;;5093562;28;20382;-70
2020/12/03 07:47:36;;;;;;;10.70;9.23;;;6.50;99.90;;;;;;5092717;28;20537;-70
2020/12/03 07:50:21;;;;;;;12.60;10.23;;;6.70;99.50;;;;;;5093839;28;20418;-70
2020/12/03 07:53:20;;;;;;;12.47;11.17;;;6.60;99.70;;;;;;5075454;28;20257;-70
2020/12/03 07:55:46;;;;;;;11.53;9.30;;;6.70;99.60;;;;;;5093419;28;20397;-70
2020/12/03 07:58:32;;;;;;;14.00;12.00;;;6.80;99.50;;;;;;5074327;28;20374;-71
2020/12/03 08:00:58;;;;;;;12.13;9.80;;;6.90;99.40;;;;;;5093107;28;20438;-70
2020/12/03 08:03:49;;;;;;;13.33;12.13;;;7.10;99.20;;;;;;5092068;28;20432;-70
2020/12/03 08:06:18;;;;;;;12.88;10.90;;;7.10;98.90;;;;;;5074264;28;20402;-71
2020/12/03 08:08:47;;;;;;;12.63;11.50;;;7.10;98.60;;;;;;5092891;28;20181;-70
2020/12/03 08:11:57;;;;;;;13.60;12.03;;;7.00;98.60;;;;;;5092454;28;20381;-70
2020/12/03 08:14:39;;;;;;;9.93;8.70;;;6.90;99.10;;;;;;4990204;28;20436;-70
2020/12/03 08:17:16;;;;;;;11.93;9.37;;;7.00;99.00;;;;;;5037803;28;20459;-70
2020/12/03 08:20:02;;;;;;;9.90;8.80;;;7.00;98.90;;;;;;5072708;28;20908;-70
2020/12/03 08:22:33;;;;;;;13.77;10.73;;;7.00;98.90;;;;;;5071994;28;20880;-70
2020/12/03 08:25:03;;;;;;;10.90;9.27;;;6.90;99.00;;;;;;5072964;28;20421;-70
2020/12/03 08:27:28;;;;;;;12.40;11.07;;;6.90;99.00;;;;;;5072134;28;20465;-70
2020/12/03 08:29:54;;;;;;;10.30;9.13;;;7.00;98.80;;;;;;5072940;28;20745;-70
2020/12/03 08:32:19;;;;;;;12.37;10.67;;;7.00;98.90;;;;;;5072015;28;20209;-71
2020/12/03 08:34:45;;;;;;;10.93;9.50;;;7.00;98.70;;;;;;5072669;28;20581;-70
2020/12/03 08:37:17;;;;;;;11.40;9.50;;;7.00;98.70;;;;;;5071989;28;20201;-71
2020/12/03 08:39:46;;;;;;;11.20;9.07;;;7.10;98.60;;;;;;5072822;28;20169;-71
2020/12/03 08:42:12;;;;;;;10.63;8.90;;;6.90;98.50;;;;;;5082052;28;20783;-73
2020/12/03 08:44:40;;;;;;;11.73;9.87;;;6.90;98.80;;;;;;5092181;28;20733;-71
2020/12/03 08:47:16;;;;;;;11.53;9.20;;;7.10;98.90;;;;;;5092486;28;20542;-69
2020/12/03 08:49:43;;;;;;;10.30;9.20;;;7.20;98.60;;;;;;5091464;28;20902;-69
2020/12/03 08:52:09;;;;;;;14.50;10.50;;;7.20;98.20;;;;;;5092180;28;20541;-69
2020/12/03 08:54:35;;;;;;;10.23;9.20;;;7.20;98.10;;;;;;5091528;28;20387;-69
2020/12/03 08:57:10;;;;;;;10.00;9.00;;;7.20;98.20;;;;;;5092493;28;20440;-69
2020/12/03 08:59:47;;;;;;;11.10;9.87;;;7.30;98.10;;;;;;5092627;28;20391;-69
2020/12/03 09:02:17;;;;;;;10.83;9.47;;;7.30;98.10;;;;;;5091981;28;20490;-69
2020/12/03 09:04:47;;;;;;;12.33;9.50;;;7.20;98.40;;;;;;5092679;28;20377;-69
2020/12/03 09:07:16;;;;;;;10.40;9.37;;;7.30;98.00;;;;;;5091962;28;20421;-69
2020/12/03 09:09:44;;;;;;;9.33;8.33;;;7.10;98.30;;;;;;5092488;28;20415;-69
2020/12/03 09:12:18;;;;;;;10.53;9.43;;;7.20;98.40;;;;;;5092409;28;20413;-69
2020/12/03 09:14:47;;;;;;;10.70;9.07;;;7.00;98.50;;;;;;5092591;28;20462;-69
2020/12/03 09:17:18;;;;;;;12.47;11.30;;;7.10;98.70;;;;;;5091796;28;20769;-69
2020/12/03 09:19:44;;;;;;;11.80;10.60;;;7.00;98.90;;;;;;5092460;28;20408;-69
2020/12/03 09:22:13;;;;;;;9.50;8.33;;;7.10;98.50;;;;;;5092426;28;20414;-69
2020/12/03 09:24:40;;;;;;;9.37;8.17;;;7.00;98.70;;;;;;5092362;28;20974;-69
2020/12/03 09:27:08;;;;;;;11.80;10.70;;;6.60;99.00;;;;;;5092256;28;20475;-69
2020/12/03 09:29:34;;;;;;;9.57;8.40;;;6.70;99.80;;;;;;5091540;28;20410;-69
2020/12/03 09:32:07;;;;;;;12.23;11.03;;;6.50;99.30;;;;;;5092315;28;20401;-69
2020/12/03 09:34:38;;;;;;;10.73;8.70;;;6.30;99.90;;;;;;5091789;28;20399;-69
2020/12/03 09:37:05;;;;;;;11.83;10.53;;;6.60;99.90;;;;;;5092319;28;20212;-69
2020/12/03 09:39:33;;;;;;;10.70;9.60;;;6.70;99.90;;;;;;5091359;28;20412;-69
2020/12/03 09:42:02;;;;;;;11.73;9.03;;;6.70;99.80;;;;;;5092235;28;20387;-69
2020/12/03 09:44:31;;;;;;;10.98;8.00;;;6.60;99.80;;;;;;5091625;28;20410;-69
2020/12/03 09:47:01;;;;;;;11.02;10.02;;;6.60;99.80;;;;;;5091644;28;20610;-68
2020/12/03 09:49:28;;;;;;;10.13;7.85;;;6.80;99.60;;;;;;5087419;28;20527;-69
2020/12/03 09:51:54;;;;;;;12.17;10.97;;;6.90;99.70;;;;;;5072732;28;20215;-68
2020/12/03 09:54:20;;;;;;;8.80;8.00;;;7.00;99.20;;;;;;5091285;28;20400;-69
2020/12/03 09:56:46;;;;;;;12.00;10.80;;;7.10;98.90;;;;;;5091838;28;20389;-68
2020/12/03 09:59:13;;;;;;;9.73;8.80;;;6.80;99.00;;;;;;5091712;28;20173;-68
2020/12/03 10:02:07;;;;;;;12.20;11.13;;;6.80;99.30;;;;;;5093208;28;20624;-68
2020/12/03 10:04:52;;;;;;;10.75;9.65;;;6.90;99.40;;;;;;5095032;28;20482;-68
2020/12/03 10:07:29;;;;;;;11.93;10.37;;;6.90;99.40;;;;;;5094979;28;20537;-68
2020/12/03 10:10:21;;;;;;;11.50;10.40;;;7.00;99.70;;;;;;5095694;28;20382;-68
2020/12/03 10:13:05;;;;;;;11.63;9.65;;;6.90;99.40;;;;;;5095460;28;20419;-68
2020/12/03 10:15:51;;;;;;;13.03;11.83;;;7.10;99.40;;;;;;5087199;28;20181;-68
2020/12/03 10:18:33;;;;;;;11.53;10.43;;;7.10;99.20;;;;;;5068866;28;20428;-68
2020/12/03 10:20:59;;;;;;;11.03;9.93;;;7.20;99.40;;;;;;5094932;28;20410;-68
2020/12/03 10:23:33;;;;;;;11.77;9.20;;;7.30;98.80;;;;;;5094413;28;20433;-68
2020/12/03 10:26:11;;;;;;;11.60;10.50;;;7.30;98.70;;;;;;5076802;28;20388;-68
2020/12/03 10:28:52;;;;;;;12.10;10.90;;;7.30;98.70;;;;;;5093821;28;20401;-68
2020/12/03 10:31:20;;;;;;;11.33;9.70;;;7.30;98.90;;;;;;5084466;28;20839;-69
2020/12/03 10:33:51;;;;;;;12.80;11.57;;;7.40;98.60;;;;;;5095088;28;20465;-68
2020/12/03 10:36:36;;;;;;;12.50;11.20;;;7.20;98.70;;;;;;5094472;28;20408;-68
2020/12/03 10:39:04;;;;;;;12.13;8.90;;;7.30;98.90;;;;;;5094578;28;20416;-68
2020/12/03 10:41:37;;;;;;;12.40;11.20;;;7.40;98.90;;;;;;5073950;28;20391;-69
2020/12/03 10:44:09;;;;;;;10.87;9.77;;;7.20;98.90;;;;;;5074439;28;20895;-70
2020/12/03 10:46:42;;;;;;;14.97;10.70;;;7.20;99.00;;;;;;5074290;28;20696;-69
2020/12/03 10:49:09;;;;;;;11.80;10.70;;;7.10;98.90;;;;;;5058290;28;20435;-70
2020/12/03 10:51:36;;;;;;;13.30;12.10;;;7.10;99.30;;;;;;5093310;28;20455;-70
2020/12/03 10:54:02;;;;;;;11.25;10.15;;;6.90;99.30;;;;;;5094391;28;20408;-69
2020/12/03 10:56:28;;;;;;;14.37;13.13;;;6.80;99.50;;;;;;5093566;28;20192;-70
2020/12/03 10:59:09;;;;;;;11.17;10.03;;;6.90;99.90;;;;;;5094467;28;20173;-70
2020/12/03 11:01:36;;;;;;;11.70;10.57;;;7.10;99.90;;;;;;5093786;28;21007;-69
2020/12/03 11:04:09;;;;;;;13.23;10.00;;;7.10;99.50;;;;;;5076404;28;20440;-70
2020/12/03 11:06:35;;;;;;;14.13;12.80;;;7.30;99.50;;;;;;5093606;28;20455;-69
2020/12/03 11:09:03;;;;;;;12.80;11.70;;;7.40;99.30;;;;;;5094544;28;20767;-70
2020/12/03 11:11:39;;;;;;;11.20;10.00;;;7.10;98.50;;;;;;5093676;28;20491;-69
2020/12/03 11:14:09;;;;;;;10.93;9.83;;;6.80;99.50;;;;;;5093451;28;20403;-70
2020/12/03 11:16:38;;;;;;;13.77;10.30;;;7.00;99.90;;;;;;5090339;28;20401;-70
2020/12/03 11:19:10;;;;;;;11.77;9.97;;;7.20;99.70;;;;;;5093528;28;20415;-70
2020/12/03 11:21:40;;;;;;;11.33;10.23;;;7.20;99.10;;;;;;5075044;28;21097;-69
2020/12/03 11:24:38;;;;;;;15.10;13.70;;;7.10;99.30;;;;;;5094081;28;20502;-70
2020/12/03 11:27:05;;;;;;;10.53;9.43;;;7.20;99.70;;;;;;5088489;28;20898;-70
2020/12/03 11:29:35;;;;;;;12.17;11.07;;;7.30;99.50;;;;;;5093160;28;20501;-69
2020/12/03 11:32:01;;;;;;;10.77;9.60;;;7.20;99.00;;;;;;5093926;28;20842;-69
2020/12/03 11:34:37;;;;;;;11.80;10.70;;;7.10;99.40;;;;;;5089880;28;20426;-70
2020/12/03 11:37:03;;;;;;;11.23;10.17;;;7.30;99.50;;;;;;5093452;28;20411;-69
2020/12/03 11:39:30;;;;;;;10.27;9.27;;;7.50;99.00;;;;;;5092902;28;20442;-69
2020/12/03 11:45:31;;;;;;;12.20;9.77;;;7.50;98.80;;;;;;5093241;28;20453;-69
2020/12/03 11:50:38;;;;;;;10.40;9.13;;;7.10;98.90;;;;;;5092609;28;20374;-69
2020/12/03 11:53:06;;;;;;;13.40;12.10;;;7.10;99.60;;;;;;5093408;28;20406;-69
2020/12/03 11:55:38;;;;;;;9.77;8.77;;;7.00;99.80;;;;;;5093074;28;20478;-69
2020/12/03 11:58:08;;;;;;;11.97;10.87;;;7.00;99.40;;;;;;5093345;28;20506;-70
2020/12/03 12:00:35;;;;;;;12.93;10.10;;;7.00;99.60;;;;;;5092711;28;20836;-69
2020/12/03 12:03:06;;;;;;;10.00;9.10;;;7.20;99.70;;;;;;5093274;28;20387;-69
2020/12/03 12:13:26;;;;;;;9.70;8.80;;;7.10;99.40;;;;;;5092121;28;20453;-70
2020/12/03 12:15:52;;;;;;;11.30;10.30;;;7.20;99.30;;;;;;5092774;28;20894;-69
2020/12/03 12:18:18;;;;;;;9.47;8.60;;;7.20;99.30;;;;;;5092958;28;20504;-70
2020/12/03 12:20:44;;;;;;;9.40;8.17;;;7.30;99.40;;;;;;5092777;28;20177;-69
2020/12/03 12:23:10;;;;;;;11.20;10.20;;;7.30;99.30;;;;;;5092742;28;20473;-70
2020/12/03 12:25:36;;;;;;;11.00;9.87;;;7.30;99.50;;;;;;5091227;28;20504;-69
2020/12/03 12:28:02;;;;;;;9.60;8.30;;;7.20;99.60;;;;;;5092124;28;20226;-69
2020/12/03 12:30:29;;;;;;;11.03;10.17;;;7.30;99.90;;;;;;5072773;28;20264;-70
2020/12/03 12:32:55;;;;;;;9.57;8.67;;;7.60;99.30;;;;;;5092363;28;20446;-70
2020/12/03 12:35:21;;;;;;;9.93;8.80;;;7.60;98.90;;;;;;5088091;28;20408;-71
2020/12/03 12:37:46;;;;;;;9.30;8.40;;;7.60;98.60;;;;;;5090836;28;20429;-70
2020/12/03 12:40:12;;;;;;;10.17;8.63;;;7.70;98.50;;;;;;5091850;28;20772;-71
2020/12/03 12:42:38;;;;;;;9.67;8.77;;;7.90;98.40;;;;;;5091508;28;20173;-71
2020/12/03 12:45:04;;;;;;;9.57;8.67;;;7.90;98.00;;;;;;5091815;28;20193;-70
2020/12/03 12:47:30;;;;;;;9.50;8.60;;;7.80;97.80;;;;;;5091141;28;20461;-71
2020/12/03 12:49:56;;;;;;;9.60;8.70;;;7.50;98.10;;;;;;5091827;28;20409;-70
2020/12/03 12:52:22;;;;;;;10.07;9.07;;;7.40;98.90;;;;;;5091566;28;20427;-71
2020/12/03 12:54:48;;;;;;;9.20;8.30;;;7.40;99.10;;;;;;5091623;28;20170;-70
2020/12/03 12:57:13;;;;;;;9.93;9.03;;;7.30;98.80;;;;;;5092173;28;20416;-70
2020/12/03 12:59:39;;;;;;;9.87;8.97;;;7.30;98.90;;;;;;5091652;28;20247;-71
2020/12/03 13:02:05;;;;;;;10.07;9.17;;;7.00;98.90;;;;;;5091895;28;20179;-70
2020/12/03 13:04:31;;;;;;;9.57;8.60;;;7.20;99.10;;;;;;5090714;28;20173;-71
2020/12/03 13:06:57;;;;;;;9.63;8.63;;;7.30;99.10;;;;;;5088168;28;20748;-70
2020/12/03 13:09:25;;;;;;;9.00;8.20;;;7.30;98.80;;;;;;5072891;28;20621;-71
2020/12/03 13:11:51;;;;;;;9.13;8.23;;;7.40;98.90;;;;;;5092035;28;20375;-71
2020/12/03 13:14:17;;;;;;;9.27;8.37;;;7.20;98.80;;;;;;5091956;28;20422;-71
2020/12/03 13:16:43;;;;;;;8.87;7.97;;;7.40;99.00;;;;;;5091131;28;20401;-70
2020/12/03 13:19:09;;;;;;;8.77;7.97;;;7.50;98.80;;;;;;5091759;28;20461;-70
2020/12/03 13:21:37;;;;;;;9.20;8.40;;;7.50;98.40;;;;;;5090849;28;20416;-71
2020/12/03 13:24:03;;;;;;;9.30;8.13;;;7.50;98.70;;;;;;5073615;28;20543;-70
2020/12/03 13:26:29;;;;;;;9.20;7.70;;;7.20;98.80;;;;;;5090837;28;20985;-71